createdAt,value
2022-12-28T00:01:21.729Z,100645.09
2022-12-28T00:03:48.734Z,100643.03
2022-12-28T00:06:16.292Z,100644.72
2022-12-28T00:08:42.756Z,100650.06
2022-12-28T00:11:26.335Z,100647.78
2022-12-28T00:13:57.636Z,100653.19
2022-12-28T00:16:30.330Z,100651.00
2022-12-28T00:18:59.087Z,100644.81
2022-12-28T00:21:27.007Z,100640.97
2022-12-28T00:23:57.124Z,100647.44
2022-12-28T00:26:24.405Z,100637.06
2022-12-28T00:28:50.918Z,100631.84
2022-12-28T00:31:17.596Z,100617.06
2022-12-28T00:33:45.223Z,100629.97
2022-12-28T00:36:14.070Z,100636.47
2022-12-28T00:38:41.026Z,100638.16
2022-12-28T00:41:08.196Z,100632.38
2022-12-28T00:43:34.826Z,100629.84
2022-12-28T00:46:02.086Z,100630.75
2022-12-28T00:48:28.728Z,100625.13
2022-12-28T00:51:07.141Z,100632.09
2022-12-28T00:53:33.615Z,100626.88
2022-12-28T00:56:10.160Z,100617.72
2022-12-28T00:58:36.954Z,100618.31
2022-12-28T01:01:04.775Z,100617.81
2022-12-28T01:03:31.358Z,100611.28
2022-12-28T01:05:58.092Z,100615.00
2022-12-28T01:08:24.852Z,100629.06
2022-12-28T01:10:51.358Z,100618.50
2022-12-28T01:13:17.772Z,100613.91
2022-12-28T01:15:44.412Z,100613.19
2022-12-28T01:18:10.804Z,100617.44
2022-12-28T01:20:40.598Z,100609.88
2022-12-28T01:23:07.087Z,100606.09
2022-12-28T01:25:34.234Z,100597.25
2022-12-28T01:28:00.675Z,100599.34
2022-12-28T01:30:27.526Z,100598.78
2022-12-28T01:32:53.977Z,100601.78
2022-12-28T01:35:20.399Z,100603.44
2022-12-28T01:37:46.791Z,100600.81
2022-12-28T01:40:14.909Z,100588.94
2022-12-28T01:42:41.544Z,100586.94
2022-12-28T01:45:35.273Z,100582.88
2022-12-28T01:48:02.524Z,100575.94
2022-12-28T01:50:29.542Z,100575.53
2022-12-28T01:52:58.763Z,100579.63
2022-12-28T01:55:28.240Z,100577.72
2022-12-28T01:57:59.199Z,100563.44
2022-12-28T02:00:26.871Z,100570.47
2022-12-28T02:03:05.696Z,100561.91
2022-12-28T02:05:41.239Z,100560.59
2022-12-28T02:08:11.784Z,100549.44
2022-12-28T02:10:40.954Z,100548.59
2022-12-28T02:13:13.387Z,100543.03
2022-12-28T02:15:39.995Z,100536.53
2022-12-28T02:18:06.918Z,100535.28
2022-12-28T02:20:51.751Z,100520.72
2022-12-28T02:23:45.597Z,100520.38
2022-12-28T02:26:37.650Z,100511.22
2022-12-28T02:29:23.858Z,100495.81
2022-12-28T02:31:56.412Z,100493.50
2022-12-28T02:34:55.900Z,100486.75
2022-12-28T02:37:49.742Z,100488.19
2022-12-28T02:40:25.117Z,100486.09
2022-12-28T02:42:53.409Z,100485.50
2022-12-28T02:46:03.582Z,100483.28
2022-12-28T02:48:59.707Z,100466.91
2022-12-28T02:52:04.870Z,100454.66
2022-12-28T02:55:21.314Z,100459.19
2022-12-28T02:57:59.955Z,100437.78
2022-12-28T03:00:32.885Z,100436.75
2022-12-28T03:03:29.495Z,100439.59
2022-12-28T03:06:24.309Z,100433.72
2022-12-28T03:09:06.835Z,100433.53
2022-12-28T03:11:53.503Z,100428.75
2022-12-28T03:14:28.463Z,100429.63
2022-12-28T03:17:16.771Z,100420.47
2022-12-28T03:20:05.953Z,100412.34
2022-12-28T03:22:53.412Z,100406.72
2022-12-28T03:25:40.756Z,100399.88
2022-12-28T03:28:28.102Z,100398.34
2022-12-28T03:31:07.022Z,100395.69
2022-12-28T03:33:35.385Z,100390.09
2022-12-28T03:36:26.767Z,100385.03
2022-12-28T03:39:00.686Z,100382.66
2022-12-28T03:41:35.264Z,100371.34
2022-12-28T03:44:08.643Z,100363.75
2022-12-28T03:46:49.099Z,100363.25
2022-12-28T03:49:15.658Z,100355.50
2022-12-28T03:51:43.043Z,100338.72
2022-12-28T03:54:09.481Z,100343.94
2022-12-28T03:56:45.734Z,100342.34
2022-12-28T03:59:12.325Z,100340.31
2022-12-28T04:01:38.956Z,100335.50
2022-12-28T04:04:05.448Z,100338.81
2022-12-28T04:06:31.881Z,100331.06
2022-12-28T04:08:58.258Z,100327.66
2022-12-28T04:11:24.713Z,100325.66
2022-12-28T04:13:51.211Z,100320.63
2022-12-28T04:16:18.324Z,100323.09
2022-12-28T04:18:45.395Z,100317.22
2022-12-28T04:21:13.090Z,100312.66
2022-12-28T04:23:39.570Z,100302.88
2022-12-28T04:26:11.750Z,100306.97
2022-12-28T04:28:38.735Z,100299.19
2022-12-28T04:31:08.071Z,100295.09
2022-12-28T04:33:35.931Z,100293.84
2022-12-28T04:36:13.512Z,100289.97
2022-12-28T04:38:40.350Z,100293.44
2022-12-28T04:41:08.105Z,100295.13
2022-12-28T04:43:34.826Z,100288.59
2022-12-28T04:46:04.258Z,100290.97
2022-12-28T04:48:31.183Z,100292.66
2022-12-28T04:50:58.051Z,100294.91
2022-12-28T04:53:24.735Z,100285.97
2022-12-28T04:55:51.148Z,100288.25
2022-12-28T04:58:17.623Z,100280.75
2022-12-28T05:00:44.425Z,100264.31
2022-12-28T05:03:11.305Z,100261.56
2022-12-28T05:05:38.029Z,100257.66
2022-12-28T05:08:05.270Z,100249.69
2022-12-28T05:10:31.671Z,100249.88
2022-12-28T05:12:58.358Z,100259.78
2022-12-28T05:15:24.975Z,100260.69
2022-12-28T05:17:51.570Z,100244.75
2022-12-28T05:20:20.505Z,100244.63
2022-12-28T05:22:46.975Z,100240.50
2022-12-28T05:25:13.787Z,100243.91
2022-12-28T05:27:40.816Z,100233.69
2022-12-28T05:30:08.030Z,100231.78
2022-12-28T05:32:34.517Z,100241.78
2022-12-28T05:35:00.905Z,100242.63
2022-12-28T05:37:27.410Z,100241.47
2022-12-28T05:39:53.941Z,100239.13
2022-12-28T05:42:20.370Z,100241.19
2022-12-28T05:44:46.904Z,100240.22
2022-12-28T05:47:13.851Z,100234.34
2022-12-28T05:49:40.376Z,100235.31
2022-12-28T05:52:06.765Z,100235.41
2022-12-28T05:54:33.180Z,100235.00
2022-12-28T05:56:59.601Z,100237.75
2022-12-28T05:59:26.278Z,100235.44
2022-12-28T06:01:52.813Z,100230.84
2022-12-28T06:04:20.414Z,100219.88
2022-12-28T06:06:48.147Z,100225.00
2022-12-28T06:09:14.922Z,100224.59
2022-12-28T06:11:41.417Z,100217.97
2022-12-28T06:14:08.441Z,100216.06
2022-12-28T06:16:37.671Z,100205.31
2022-12-28T06:19:09.023Z,100209.22
2022-12-28T06:21:36.882Z,100207.53
2022-12-28T06:24:04.485Z,100204.16
2022-12-28T06:26:32.534Z,100204.84
2022-12-28T06:29:00.086Z,100191.88
2022-12-28T06:31:35.488Z,100199.22
2022-12-28T06:34:04.369Z,100205.63
2022-12-28T06:36:34.039Z,100199.53
2022-12-28T06:39:02.086Z,100189.31
2022-12-28T06:41:29.207Z,100190.34
2022-12-28T06:43:56.595Z,100195.38
2022-12-28T06:46:24.832Z,100184.50
2022-12-28T06:48:51.671Z,100183.91
2022-12-28T06:51:23.072Z,100187.53
2022-12-28T06:53:50.634Z,100186.09
2022-12-28T06:56:22.395Z,100183.38
2022-12-28T06:58:49.862Z,100178.59
2022-12-28T07:01:28.389Z,100179.22
2022-12-28T07:03:56.617Z,100176.25
2022-12-28T07:06:25.372Z,100178.38
2022-12-28T07:08:52.357Z,100172.81
2022-12-28T07:11:21.382Z,100171.38
2022-12-28T07:13:48.750Z,100168.50
2022-12-28T07:16:20.825Z,100172.75
2022-12-28T07:18:47.545Z,100153.06
2022-12-28T07:21:15.210Z,100155.25
2022-12-28T07:23:42.191Z,100144.44
2022-12-28T07:26:11.742Z,100150.28
2022-12-28T07:28:45.383Z,100131.59
2022-12-28T07:31:14.243Z,100127.69
2022-12-28T07:33:40.997Z,100131.59
2022-12-28T07:36:09.592Z,100128.94
2022-12-28T07:38:36.086Z,100129.69
2022-12-28T07:41:07.800Z,100120.72
2022-12-28T07:43:35.087Z,100122.91
2022-12-28T07:46:07.694Z,100120.13
2022-12-28T07:48:35.274Z,100120.72
2022-12-28T07:51:12.209Z,100112.03
2022-12-28T07:53:40.144Z,100116.06
2022-12-28T07:56:07.225Z,100103.88
2022-12-28T07:58:33.677Z,100104.66
2022-12-28T08:01:04.259Z,100111.19
2022-12-28T08:03:30.818Z,100110.56
2022-12-28T08:06:05.448Z,100092.78
2022-12-28T08:08:34.448Z,100100.16
2022-12-28T08:11:12.038Z,100101.88
2022-12-28T08:13:40.150Z,100104.75
2022-12-28T08:16:07.184Z,100100.16
2022-12-28T08:18:33.936Z,100104.91
2022-12-28T08:21:27.460Z,100105.16
2022-12-28T08:23:54.386Z,100089.75
2022-12-28T08:26:35.735Z,100082.00
2022-12-28T08:29:05.197Z,100070.84
2022-12-28T08:31:37.525Z,100066.97
2022-12-28T08:34:05.390Z,100067.84
2022-12-28T08:36:32.479Z,100066.00
2022-12-28T08:39:00.617Z,100058.66
2022-12-28T08:41:28.464Z,100053.56
2022-12-28T08:43:55.486Z,100052.78
2022-12-28T08:46:27.984Z,100049.69
2022-12-28T08:48:55.971Z,100048.31
2022-12-28T08:51:32.256Z,100055.75
2022-12-28T08:53:59.485Z,100056.34
2022-12-28T08:56:31.311Z,100056.34
2022-12-28T08:58:59.756Z,100047.91
2022-12-28T09:01:43.786Z,100036.69
2022-12-28T09:04:19.821Z,100031.81
2022-12-28T09:06:46.736Z,100039.69
2022-12-28T09:09:15.581Z,100032.78
2022-12-28T09:11:42.784Z,100034.28
2022-12-28T09:14:17.003Z,100028.53
2022-12-28T09:16:47.083Z,100022.22
2022-12-28T09:19:14.765Z,100013.81
2022-12-28T09:21:41.911Z,100020.47
2022-12-28T09:24:08.472Z,100015.03
2022-12-28T09:26:37.356Z,100010.16
2022-12-28T09:29:06.857Z,100006.84
2022-12-28T09:31:36.878Z,100011.84
2022-12-28T09:34:35.657Z,100000.53
2022-12-28T09:36:54.785Z,100001.19
2022-12-28T09:39:24.654Z,100005.06
2022-12-28T09:41:58.871Z,99991.25
2022-12-28T09:44:40.305Z,99997.78
2022-12-28T09:47:13.971Z,99995.09
2022-12-28T09:49:47.583Z,99993.84
2022-12-28T09:52:14.203Z,99988.63
2022-12-28T09:54:41.991Z,100000.47
2022-12-28T09:57:14.030Z,99988.47
2022-12-28T09:59:41.038Z,99988.66
2022-12-28T10:02:24.214Z,99990.97
2022-12-28T10:04:50.970Z,99983.16
2022-12-28T10:07:17.800Z,99982.47
2022-12-28T10:09:45.013Z,99980.75
2022-12-28T10:12:25.681Z,99969.81
2022-12-28T10:14:53.254Z,99967.28
2022-12-28T10:17:27.354Z,99955.69
2022-12-28T10:19:57.854Z,99962.59
2022-12-28T10:22:25.319Z,99965.13
2022-12-28T10:24:51.935Z,99951.72
2022-12-28T10:27:24.951Z,99949.03
2022-12-28T10:29:52.724Z,99949.13
2022-12-28T10:32:19.399Z,99942.78
2022-12-28T10:35:00.407Z,99931.19
2022-12-28T10:37:31.945Z,99930.84
2022-12-28T10:40:00.431Z,99930.38
2022-12-28T10:42:32.090Z,99932.31
2022-12-28T10:45:03.055Z,99919.59
2022-12-28T10:47:41.832Z,99915.31
2022-12-28T10:50:39.508Z,99915.81
2022-12-28T10:53:16.810Z,99915.38
2022-12-28T10:55:44.125Z,99911.19
2022-12-28T10:58:33.772Z,99915.28
2022-12-28T11:01:13.069Z,99916.56
2022-12-28T11:03:53.270Z,99904.69
2022-12-28T11:06:26.626Z,99904.53
2022-12-28T11:09:19.981Z,99901.75
2022-12-28T11:11:47.822Z,99890.59
2022-12-28T11:14:16.061Z,99881.22
2022-12-28T11:16:43.223Z,99889.88
2022-12-28T11:19:11.215Z,99886.75
2022-12-28T11:21:37.730Z,99872.31
2022-12-28T11:24:05.070Z,99878.91
2022-12-28T11:26:33.044Z,99876.31
2022-12-28T11:29:01.090Z,99880.09
2022-12-28T11:31:34.363Z,99879.28
2022-12-28T11:34:06.476Z,99858.34
2022-12-28T11:36:38.849Z,99861.50
2022-12-28T11:39:27.158Z,99865.41
2022-12-28T11:44:48.944Z,99853.38
2022-12-28T11:47:15.392Z,99850.75
2022-12-28T11:49:43.365Z,99852.69
2022-12-28T11:52:27.530Z,99852.53
2022-12-28T11:54:56.322Z,99852.75
2022-12-28T11:57:36.511Z,99855.75
2022-12-28T12:00:23.228Z,99845.75
2022-12-28T12:02:52.943Z,99852.38
2022-12-28T12:05:47.799Z,99843.31
2022-12-28T12:08:17.349Z,99838.31
2022-12-28T12:10:47.608Z,99840.25
2022-12-28T12:13:26.390Z,99840.41
2022-12-28T12:16:04.069Z,99841.28
2022-12-28T12:18:56.595Z,99832.25
2022-12-28T12:21:39.233Z,99835.78
2022-12-28T12:24:20.863Z,99833.41
2022-12-28T12:26:54.299Z,99832.56
2022-12-28T12:29:42.369Z,99830.34
2022-12-28T12:32:19.992Z,99832.19
2022-12-28T12:34:56.295Z,99839.63
2022-12-28T12:37:53.439Z,99829.66
2022-12-28T12:40:42.864Z,99825.13
2022-12-28T12:43:22.253Z,99822.72
2022-12-28T12:45:48.664Z,99828.94
2022-12-28T12:48:20.951Z,99819.06
2022-12-28T12:51:32.706Z,99822.72
2022-12-28T12:54:08.712Z,99823.53
2022-12-28T12:56:49.734Z,99826.97
2022-12-28T12:59:39.684Z,99829.88
2022-12-28T13:02:12.368Z,99827.09
2022-12-28T13:04:42.958Z,99820.50
2022-12-28T13:07:18.596Z,99819.97
2022-12-28T13:09:45.098Z,99813.75
2022-12-28T13:12:17.021Z,99813.13
2022-12-28T13:14:45.956Z,99814.38
2022-12-28T13:17:18.435Z,99811.13
2022-12-28T13:19:44.942Z,99816.00
2022-12-28T13:22:32.223Z,99801.53
2022-12-28T13:24:59.214Z,99805.59
2022-12-28T13:27:31.861Z,99806.16
2022-12-28T13:29:58.306Z,99795.31
2022-12-28T13:32:35.993Z,99798.41
2022-12-28T13:35:18.166Z,99794.16
2022-12-28T13:37:58.723Z,99803.38
2022-12-28T13:40:25.664Z,99800.38
2022-12-28T13:43:00.639Z,99799.00
2022-12-28T13:45:28.342Z,99801.38
2022-12-28T13:47:55.950Z,99791.72
2022-12-28T13:50:26.947Z,99796.94
2022-12-28T13:52:58.234Z,99799.63
2022-12-28T13:55:29.397Z,99796.66
2022-12-28T13:58:00.120Z,99804.94
2022-12-28T14:00:28.913Z,99803.25
2022-12-28T14:02:56.465Z,99805.31
2022-12-28T14:05:26.330Z,99788.94
2022-12-28T14:07:54.529Z,99795.84
2022-12-28T14:10:21.303Z,99799.50
2022-12-28T14:12:48.771Z,99806.84
2022-12-28T14:15:16.423Z,99798.94
2022-12-28T14:17:45.224Z,99801.47
2022-12-28T14:20:11.896Z,99796.88
2022-12-28T14:22:39.973Z,99796.16
2022-12-28T14:25:09.229Z,99802.78
2022-12-28T14:27:46.702Z,99802.84
2022-12-28T14:30:28.614Z,99798.69
2022-12-28T14:32:55.537Z,99798.31
2022-12-28T14:35:27.406Z,99796.25
2022-12-28T14:37:59.121Z,99788.94
2022-12-28T14:40:34.969Z,99786.88
2022-12-28T14:43:10.043Z,99788.34
2022-12-28T14:48:40.192Z,99788.03
2022-12-28T14:51:25.137Z,99785.81
2022-12-28T14:54:17.483Z,99785.34
2022-12-28T14:56:51.574Z,99781.66
2022-12-28T14:59:38.322Z,99788.50
2022-12-28T15:00:25.637Z,99798.56
2022-12-28T15:02:05.370Z,99784.44
2022-12-28T15:04:39.579Z,99786.22
2022-12-28T15:07:07.952Z,99788.88
2022-12-28T15:09:34.800Z,99782.97
2022-12-28T15:12:13.713Z,99785.50
2022-12-28T15:14:40.388Z,99785.81
2022-12-28T15:17:07.462Z,99780.84
2022-12-28T15:19:33.928Z,99777.97
2022-12-28T15:22:00.445Z,99774.81
2022-12-28T15:24:33.500Z,99783.88
2022-12-28T15:27:01.579Z,99793.56
2022-12-28T15:29:47.850Z,99773.91
2022-12-28T15:32:14.496Z,99779.72
2022-12-28T15:34:41.270Z,99777.28
2022-12-28T15:37:07.759Z,99772.13
2022-12-28T15:39:34.105Z,99774.66
2022-12-28T15:42:00.525Z,99775.91
2022-12-28T15:44:27.007Z,99778.75
2022-12-28T15:46:53.579Z,99770.69
2022-12-28T15:49:20.111Z,99774.53
2022-12-28T15:51:46.550Z,99774.44
2022-12-28T15:54:13.091Z,99784.31
2022-12-28T15:56:41.070Z,99785.53
2022-12-28T15:59:14.600Z,99783.28
2022-12-28T16:01:43.757Z,99781.13
2022-12-28T16:04:10.828Z,99774.09
2022-12-28T16:06:43.634Z,99772.59
2022-12-28T16:09:10.669Z,99768.34
2022-12-28T16:11:37.264Z,99769.72
2022-12-28T16:14:05.138Z,99762.06
2022-12-28T16:16:35.933Z,99770.50
2022-12-28T16:19:02.434Z,99759.31
2022-12-28T16:21:29.628Z,99758.31
2022-12-28T16:23:56.645Z,99751.94
2022-12-28T16:26:23.188Z,99753.78
2022-12-28T16:28:49.619Z,99761.41
2022-12-28T16:31:34.565Z,99751.50
2022-12-28T16:34:06.043Z,99746.44
2022-12-28T16:36:33.180Z,99752.41
2022-12-28T16:38:59.589Z,99753.69
2022-12-28T16:41:28.811Z,99755.06
2022-12-28T16:44:05.232Z,99752.22
2022-12-28T16:46:32.094Z,99746.56
2022-12-28T16:49:02.446Z,99754.06
2022-12-28T16:51:30.361Z,99749.78
2022-12-28T16:53:57.437Z,99748.75
2022-12-28T16:56:24.351Z,99743.63
2022-12-28T16:58:50.789Z,99749.78
2022-12-28T17:01:17.368Z,99749.84
2022-12-28T17:03:43.968Z,99743.38
2022-12-28T17:06:10.621Z,99744.41
2022-12-28T17:08:37.007Z,99748.94
2022-12-28T17:11:07.793Z,99744.16
2022-12-28T17:13:34.181Z,99747.09
2022-12-28T17:16:01.086Z,99740.19
2022-12-28T17:18:28.008Z,99745.28
2022-12-28T17:20:54.878Z,99737.69
2022-12-28T17:23:21.305Z,99742.75
2022-12-28T17:25:53.284Z,99735.69
2022-12-28T17:28:20.142Z,99735.69
2022-12-28T17:30:46.617Z,99733.75
2022-12-28T17:33:14.296Z,99727.69
2022-12-28T17:35:40.895Z,99728.72
2022-12-28T17:38:07.312Z,99731.06
2022-12-28T17:40:33.811Z,99726.81
2022-12-28T17:43:00.337Z,99718.06
2022-12-28T17:45:26.788Z,99726.91
2022-12-28T17:47:53.222Z,99715.88
2022-12-28T17:50:20.097Z,99725.91
2022-12-28T17:52:46.954Z,99720.56
2022-12-28T17:55:13.387Z,99718.94
2022-12-28T17:57:41.798Z,99718.63
2022-12-28T18:00:08.993Z,99720.56
2022-12-28T18:02:35.510Z,99716.53
2022-12-28T18:05:02.019Z,99715.50
2022-12-28T18:07:28.423Z,99716.19
2022-12-28T18:09:54.848Z,99718.75
2022-12-28T18:12:21.230Z,99713.28
2022-12-28T18:14:48.746Z,99711.94
2022-12-28T18:17:19.146Z,99713.06
2022-12-28T18:19:45.737Z,99711.22
2022-12-28T18:22:12.085Z,99707.91
2022-12-28T18:24:38.699Z,99714.22
2022-12-28T18:27:05.241Z,99692.19
2022-12-28T18:29:31.599Z,99702.41
2022-12-28T18:31:57.998Z,99705.19
2022-12-28T18:34:24.560Z,99705.47
2022-12-28T18:36:51.088Z,99699.72
2022-12-28T18:39:17.530Z,99702.69
2022-12-28T18:41:43.961Z,99699.72
2022-12-28T18:44:10.360Z,99697.34
2022-12-28T18:46:37.158Z,99699.03
2022-12-28T18:49:03.663Z,99704.72
2022-12-28T18:51:30.343Z,99712.59
2022-12-28T18:53:56.736Z,99707.31
2022-12-28T18:56:23.203Z,99711.59
2022-12-28T18:58:54.540Z,99708.06
2022-12-28T19:02:04.750Z,99706.47
2022-12-28T19:04:11.053Z,99700.09
2022-12-28T19:06:37.950Z,99702.53
2022-12-28T19:09:06.908Z,99706.72
2022-12-28T19:11:33.590Z,99701.63
2022-12-28T19:14:02.011Z,99696.66
2022-12-28T19:16:31.382Z,99690.59
2022-12-28T19:18:59.101Z,99695.19
2022-12-28T19:21:28.284Z,99680.31
2022-12-28T19:23:55.992Z,99667.59
2022-12-28T19:26:23.384Z,99653.22
2022-12-28T19:28:49.894Z,99648.03
2022-12-28T19:31:16.385Z,99648.63
2022-12-28T19:33:42.835Z,99638.97
2022-12-28T19:36:10.416Z,99634.63
2022-12-28T19:38:36.995Z,99638.41
2022-12-28T19:41:06.328Z,99637.72
2022-12-28T19:43:32.940Z,99635.31
2022-12-28T19:46:08.211Z,99635.28
2022-12-28T19:48:34.684Z,99640.09
2022-12-28T19:51:01.347Z,99637.81
2022-12-28T19:53:28.567Z,99631.69
2022-12-28T19:55:59.434Z,99627.63
2022-12-28T19:58:25.899Z,99627.09
2022-12-28T20:00:52.854Z,99630.63
2022-12-28T20:03:19.585Z,99621.63
2022-12-28T20:05:46.285Z,99621.53
2022-12-28T20:08:12.851Z,99622.91
2022-12-28T20:10:39.369Z,99605.44
2022-12-28T20:13:05.868Z,99606.81
2022-12-28T20:15:33.368Z,99609.44
2022-12-28T20:17:59.817Z,99614.47
2022-12-28T20:20:28.675Z,99606.44
2022-12-28T20:22:57.148Z,99601.06
2022-12-28T20:25:23.963Z,99599.91
2022-12-28T20:27:50.422Z,99593.84
2022-12-28T20:30:17.083Z,99596.63
2022-12-28T20:32:45.117Z,99590.88
2022-12-28T20:35:12.140Z,99586.59
2022-12-28T20:37:38.784Z,99587.28
2022-12-28T20:40:05.952Z,99585.75
2022-12-28T20:42:51.016Z,99603.75
2022-12-28T20:45:17.589Z,99580.81
2022-12-28T20:47:44.130Z,99578.81
2022-12-28T20:50:10.708Z,99579.81
2022-12-28T20:52:37.296Z,99579.13
2022-12-28T20:55:03.946Z,99589.84
2022-12-28T20:57:30.408Z,99582.69
2022-12-28T20:59:58.446Z,99590.09
2022-12-28T21:02:24.972Z,99580.16
2022-12-28T21:04:51.411Z,99570.06
2022-12-28T21:07:19.545Z,99557.97
2022-12-28T21:09:50.634Z,99558.72
2022-12-28T21:12:17.609Z,99561.41
2022-12-28T21:14:44.152Z,99565.22
2022-12-28T21:17:10.571Z,99567.06
2022-12-28T21:19:36.963Z,99546.69
2022-12-28T21:22:03.586Z,99526.53
2022-12-28T21:24:30.011Z,99537.56
2022-12-28T21:26:56.359Z,99528.75
2022-12-28T21:29:25.904Z,99530.22
2022-12-28T21:31:52.669Z,99522.31
2022-12-28T21:34:19.542Z,99510.75
2022-12-28T21:36:46.138Z,99506.63
2022-12-28T21:39:12.490Z,99510.84
2022-12-28T21:41:51.248Z,99507.88
2022-12-28T21:44:22.738Z,99501.81
2022-12-28T21:46:51.003Z,99490.09
2022-12-28T21:49:18.006Z,99501.97
2022-12-28T21:51:44.457Z,99491.78
2022-12-28T21:54:16.449Z,99487.56
2022-12-28T21:56:44.524Z,99482.50
2022-12-28T21:59:12.677Z,99487.03
2022-12-28T22:01:59.027Z,99474.06
2022-12-28T22:04:44.351Z,99474.72
2022-12-28T22:07:13.243Z,99465.50
2022-12-28T22:09:58.542Z,99457.94
2022-12-28T22:12:35.008Z,99461.47
2022-12-28T22:15:37.189Z,99458.63
2022-12-28T22:18:06.278Z,99455.75
2022-12-28T22:20:34.722Z,99448.34
2022-12-28T22:23:01.504Z,99442.00
2022-12-28T22:25:29.863Z,99433.88
2022-12-28T22:27:56.965Z,99419.56
2022-12-28T22:30:23.836Z,99420.19
2022-12-28T22:32:50.284Z,99415.13
2022-12-28T22:35:16.956Z,99414.97
2022-12-28T22:37:43.793Z,99411.16
2022-12-28T22:40:11.356Z,99412.44
2022-12-28T22:42:45.123Z,99406.63
2022-12-28T22:45:13.198Z,99399.97
2022-12-28T22:47:39.960Z,99395.97
2022-12-28T22:50:08.317Z,99389.78
2022-12-28T22:52:34.781Z,99394.13
2022-12-28T22:55:01.436Z,99387.56
2022-12-28T22:57:28.393Z,99393.47
2022-12-28T22:59:55.244Z,99390.84
2022-12-28T23:02:21.874Z,99387.16
2022-12-28T23:04:48.357Z,99375.81
2022-12-28T23:07:14.833Z,99383.88
2022-12-28T23:09:41.175Z,99368.09
2022-12-28T23:12:07.909Z,99370.34
2022-12-28T23:14:53.222Z,99370.19
2022-12-28T23:17:19.748Z,99355.16
2022-12-28T23:20:05.464Z,99345.81
2022-12-28T23:23:12.410Z,99342.16
2022-12-28T23:25:59.265Z,99342.91
2022-12-28T23:28:26.573Z,99344.75
2022-12-28T23:30:53.582Z,99339.63
2022-12-28T23:33:19.979Z,99334.81
2022-12-28T23:35:46.622Z,99339.09
2022-12-28T23:38:13.189Z,99332.63
2022-12-28T23:40:40.873Z,99331.50
2022-12-28T23:43:08.055Z,99321.59
2022-12-28T23:45:34.809Z,99319.94
2022-12-28T23:48:01.636Z,99330.38
2022-12-28T23:50:28.327Z,99326.00
2022-12-28T23:52:55.097Z,99328.34
2022-12-28T23:55:21.518Z,99313.91
2022-12-28T23:57:47.993Z,99316.09
